KCKC

Details ICAO KCKC (GRM)
Name GRAND MARAIS COOK CO
Region United States
Timezone America/Chicago (UTC-5.0)
Plans Departing 3
Arriving 8
Stats Elevation 1,799 ft / 548 m (AMSL)
Location 47.838340° -90.382952°
Runways 1
Magnetic Variation 2.701° W
Sunrise 2018-05-24 10:14:44 UTC / 2018-05-24 05:14:44 Local
Sunset 2018-05-25 01:44:55 UTC / 2018-05-24 20:44:55 Local
Advertisement - Login to hide

Runways

ID Width Length Bearing (true) Bearing (mag) Surface Threshold Offset Overrun Length
09 75 ft / 23 m 4,188 ft / 1,277 m 94.70° 97.40° Asphalt 0 ft / 0 m 0 ft / 0 m
27 75 ft / 23 m 4,188 ft / 1,277 m 274.71° 277.41° Asphalt 0 ft / 0 m 0 ft / 0 m

Map

Weather


0- 5 10 15 20 25 30 35+ Temperature / ° C

Clouds and Precipitation
Forecast for 2018-05-24 12:00 UTC. Updated 2 hours ago

Ground ~20,000 ft ~40,000 ft Winds

METAR

KCKC 241035Z AUTO 00000KT 10SM CLR 10/07 A3011 RMK AO2 LTG DSNT S

TAF

Not found

Frequencies

Recorded 119.92 MHz AWOS 3
Unicom 122.80 MHz CTAF/UNICOM
Warning: Do not use this data for real-world aviation or navigation. No guarantee of current accuracy is given.